Augustaville, Pennsylvania
Current Conditions -  °F | °C
As of 12:53 AM on Thursday 23 Oct 2014 (Local Time) from KSEG Reporting Station
Overcast Overcast  
Wind Chill: 52°   Ceiling: 2500
Heat Index: 52°   Visibility: 10mi
Dew Point: 43°   Wind: 15mph
Humidity: 71%   Direction: 340°NNW
Pressure: 29.95"   Gusts: 23mph
Location:  40.83°N, 76.761°W
Report Text: KSEG 230453Z AUTO 34013G20KT 10SM OVC025 11/06 A2995 RMK AO2 SLP142 T01110061 401280094
Loading
Personal Weather Stations






























Interactive Weather Map New forecast layout! Learn more

10-Day Weather Forecast

Advertisements
Track Severe Weather on mobile